createdAt,value
2019-02-12T00:03:10.886Z,1.71
2019-02-12T00:09:05.888Z,1.86
2019-02-12T00:15:00.883Z,2.03
2019-02-12T00:20:55.899Z,1.89
2019-02-12T00:26:50.922Z,1.57
2019-02-12T00:32:45.898Z,1.18
2019-02-12T00:38:40.938Z,1.78
2019-02-12T00:44:35.919Z,1.37
2019-02-12T00:50:30.936Z,1.43
2019-02-12T00:56:25.917Z,1.72
2019-02-12T01:02:20.963Z,1.27
2019-02-12T01:08:15.918Z,1.23
2019-02-12T01:14:10.951Z,1.19
2019-02-12T01:20:05.990Z,1.03
2019-02-12T01:26:00.945Z,1.45
2019-02-12T01:31:55.958Z,1.03
2019-02-12T01:37:50.950Z,1.36
2019-02-12T01:43:45.968Z,1.1
2019-02-12T01:49:40.972Z,1.06
2019-02-12T01:55:36.016Z,1.13
2019-02-12T02:01:30.969Z,1.27
2019-02-12T02:07:25.953Z,1.61
2019-02-12T02:13:20.972Z,1.58
2019-02-12T02:19:15.991Z,1.03
2019-02-12T02:25:11.032Z,1.02
2019-02-12T02:31:06.048Z,1.08
2019-02-12T02:37:01.017Z,0.95
2019-02-12T02:42:56.021Z,0.93
2019-02-12T02:48:51.007Z,0.9
2019-02-12T02:54:46.020Z,1.07
2019-02-12T03:00:41.061Z,0.89
2019-02-12T03:06:36.017Z,0.81
2019-02-12T03:12:31.043Z,2.04
2019-02-12T03:18:26.034Z,1.06
2019-02-12T03:24:21.062Z,1.25
2019-02-12T03:30:16.027Z,1.06
2019-02-12T03:36:11.129Z,1.08
2019-02-12T03:42:06.083Z,1.1
2019-02-12T03:48:01.079Z,1.14
2019-02-12T03:53:56.056Z,1.1
2019-02-12T03:59:51.057Z,0.93
2019-02-12T04:05:46.097Z,0.87
2019-02-12T04:11:41.097Z,1.16
2019-02-12T04:17:36.119Z,2.51
2019-02-12T04:23:31.088Z,3.85
2019-02-12T04:29:26.136Z,3.41
2019-02-12T04:35:21.098Z,3.72
2019-02-12T04:41:16.104Z,3.5
2019-02-12T04:47:11.102Z,3.74
2019-02-12T04:53:06.104Z,2.7
2019-02-12T04:59:01.110Z,1.88
2019-02-12T05:04:56.143Z,1.89
2019-02-12T05:10:51.188Z,1.44
2019-02-12T05:16:46.130Z,1.53
2019-02-12T05:22:43.362Z,1.47
2019-02-12T05:28:36.146Z,1.27
2019-02-12T05:34:31.170Z,1.35
2019-02-12T05:40:26.184Z,1.3
2019-02-12T05:46:21.184Z,1.2
2019-02-12T05:52:16.167Z,1.64
2019-02-12T05:58:11.207Z,1.44
2019-02-12T06:04:06.226Z,2.38
2019-02-12T06:10:01.185Z,2.17
2019-02-12T06:15:56.218Z,1.57
2019-02-12T06:21:51.183Z,1.6
2019-02-12T06:27:46.203Z,2.1
2019-02-12T06:33:41.207Z,2.42
2019-02-12T06:39:36.241Z,3.28
2019-02-12T06:45:31.209Z,4.11
2019-02-12T06:51:26.205Z,5.11
2019-02-12T06:57:21.228Z,4.47
2019-02-12T07:03:16.221Z,5.13
2019-02-12T07:09:11.265Z,5.25
2019-02-12T07:15:06.218Z,5.74
2019-02-12T07:21:01.233Z,7.5
2019-02-12T07:26:56.224Z,5.89
2019-02-12T07:32:51.260Z,7.25
2019-02-12T07:38:46.240Z,5.46
2019-02-12T07:44:41.242Z,5.92
2019-02-12T07:50:36.290Z,6.21
2019-02-12T07:56:31.238Z,5.2
2019-02-12T08:02:26.316Z,5.43
2019-02-12T08:08:21.310Z,5.06
2019-02-12T08:14:16.272Z,5.64
2019-02-12T08:20:11.286Z,4.45
2019-02-12T08:26:06.305Z,5.49
2019-02-12T08:32:01.331Z,4.82
2019-02-12T08:37:56.332Z,5.46
2019-02-12T08:43:51.288Z,4.57
2019-02-12T08:49:46.306Z,3.28
2019-02-12T08:55:41.304Z,2.2
2019-02-12T09:01:36.300Z,1.92
2019-02-12T09:07:31.381Z,2.37
2019-02-12T09:13:26.322Z,6.37
2019-02-12T09:19:21.372Z,3.54
2019-02-12T09:25:16.341Z,4.98
2019-02-12T09:31:11.320Z,9.57
2019-02-12T09:37:06.345Z,6.6
2019-02-12T09:43:01.360Z,7.91
2019-02-12T09:48:56.363Z,6.04
2019-02-12T09:54:51.362Z,6.08
2019-02-12T10:00:46.361Z,6.47
2019-02-12T10:06:41.419Z,5.53
2019-02-12T10:12:36.418Z,4.04
2019-02-12T10:18:31.373Z,4.75
2019-02-12T10:24:26.437Z,2.84
2019-02-12T10:30:21.377Z,1.87
2019-02-12T10:36:16.382Z,2.22
2019-02-12T10:42:11.391Z,1.8
2019-02-12T10:48:06.413Z,2.1
2019-02-12T10:54:01.409Z,3.07
2019-02-12T10:59:56.419Z,2.96
2019-02-12T11:05:51.423Z,3.31
2019-02-12T11:11:46.416Z,3.06
2019-02-12T11:17:41.422Z,3.5
2019-02-12T11:23:36.417Z,2.54
2019-02-12T11:29:31.444Z,2.68
2019-02-12T11:35:26.441Z,2.56
2019-02-12T11:41:21.426Z,2.33
2019-02-12T11:47:16.475Z,1.89
2019-02-12T11:53:11.463Z,2.12
2019-02-12T11:59:06.508Z,2.1
2019-02-12T12:05:01.489Z,1.55
2019-02-12T12:10:56.494Z,1.88
2019-02-12T12:16:51.488Z,1.75
2019-02-12T12:22:46.514Z,2.36
2019-02-12T12:28:41.484Z,2.6
2019-02-12T12:34:36.530Z,2.45
2019-02-12T12:40:31.499Z,2.57
2019-02-12T12:46:26.506Z,2.87
2019-02-12T12:52:21.567Z,2.78
2019-02-12T12:58:16.530Z,2.38
2019-02-12T13:04:11.521Z,2.72
2019-02-12T13:10:06.520Z,2.85
2019-02-12T13:16:02.967Z,2.86
2019-02-12T13:21:56.555Z,2.88
2019-02-12T13:27:51.534Z,2.71
2019-02-12T13:33:46.593Z,2.73
2019-02-12T13:39:41.566Z,3.13
2019-02-12T13:45:36.556Z,2.74
2019-02-12T13:51:31.584Z,2.89
2019-02-12T13:57:26.585Z,3.44
2019-02-12T14:03:22.598Z,3.18
2019-02-12T14:09:16.639Z,2.41
2019-02-12T14:15:11.594Z,2.21
2019-02-12T14:21:06.602Z,3.37
2019-02-12T14:27:01.605Z,3.25
2019-02-12T14:32:56.614Z,2.94
2019-02-12T14:38:53.030Z,3.23
2019-02-12T14:44:46.633Z,3.04
2019-02-12T14:50:41.658Z,2.97
2019-02-12T14:56:36.665Z,2.93
2019-02-12T15:02:31.657Z,3.81
2019-02-12T15:08:26.667Z,4.48
2019-02-12T15:14:21.663Z,3.04
2019-02-12T15:20:16.696Z,2.86
2019-02-12T15:26:11.676Z,3.84
2019-02-12T15:32:06.709Z,3.08
2019-02-12T15:38:01.658Z,2.63
2019-02-12T15:43:56.696Z,3.2
2019-02-12T15:49:51.688Z,3.18
2019-02-12T15:55:51.261Z,3.08
2019-02-12T16:01:41.681Z,2.9
2019-02-12T16:07:36.722Z,3.14
2019-02-12T16:13:32.705Z,3.05
2019-02-12T16:19:28.015Z,2.96
2019-02-12T16:25:21.704Z,4.31
2019-02-12T16:31:18.503Z,5.24
2019-02-12T16:37:11.766Z,5.19
2019-02-12T16:43:06.776Z,5.16
2019-02-12T16:49:01.743Z,5.85
2019-02-12T16:54:56.781Z,6.23
2019-02-12T17:00:51.736Z,6.11
2019-02-12T17:06:46.818Z,5.49
2019-02-12T17:12:41.759Z,6.58
2019-02-12T17:18:36.756Z,4.76
2019-02-12T17:24:31.784Z,6.37
2019-02-12T17:30:26.806Z,7.03
2019-02-12T17:36:21.825Z,7.26
2019-02-12T17:42:16.826Z,7.07
2019-02-12T17:48:11.836Z,6.03
2019-02-12T17:54:06.796Z,7.64
2019-02-12T18:00:01.818Z,8.86
2019-02-12T18:05:56.811Z,6.88
2019-02-12T18:11:51.813Z,8.19
2019-02-12T18:17:46.825Z,8.44
2019-02-12T18:23:41.835Z,8.83
2019-02-12T18:29:36.998Z,11.75
2019-02-12T18:35:31.880Z,12.31
2019-02-12T18:41:26.874Z,8.31
2019-02-12T18:47:21.846Z,8.71
2019-02-12T18:53:16.875Z,10.81
2019-02-12T18:59:11.855Z,10.61
2019-02-12T19:05:06.882Z,12.9
2019-02-12T19:11:01.869Z,8.77
2019-02-12T19:16:56.898Z,10.54
2019-02-12T19:22:51.946Z,8.35
2019-02-12T19:28:46.887Z,12.12
2019-02-12T19:34:41.874Z,14.8
2019-02-12T19:40:36.893Z,12.17
2019-02-12T19:46:31.891Z,13.14
2019-02-12T19:52:26.913Z,14.7
2019-02-12T19:58:21.949Z,19.3
2019-02-12T20:04:16.955Z,8.48
2019-02-12T20:10:11.936Z,21.19
2019-02-12T20:16:06.995Z,8.3
2019-02-12T20:22:01.952Z,9.36
2019-02-12T20:27:56.972Z,10.89
2019-02-12T20:33:56.878Z,8.21
2019-02-12T20:39:46.976Z,7.77
2019-02-12T20:45:41.950Z,7.58
2019-02-12T20:51:36.969Z,7.93
2019-02-12T20:57:31.972Z,7.96
2019-02-12T21:03:26.944Z,8.41
2019-02-12T21:09:21.976Z,7.74
2019-02-12T21:15:16.958Z,7.41
2019-02-12T21:21:11.972Z,6.53
2019-02-12T21:27:07.002Z,6.36
2019-02-12T21:33:02.023Z,9.11
2019-02-12T21:38:56.989Z,7.18
2019-02-12T21:44:52.019Z,6.36
2019-02-12T21:50:47.026Z,7.34
2019-02-12T21:56:42.007Z,7.26
2019-02-12T22:02:37.011Z,7.07
2019-02-12T22:08:32.009Z,6.65
2019-02-12T22:14:27.044Z,6.85
2019-02-12T22:20:22.028Z,7.23
2019-02-12T22:26:17.064Z,5.98
2019-02-12T22:32:12.062Z,5.95
2019-02-12T22:38:07.059Z,5.34
2019-02-12T22:44:02.048Z,5.2
2019-02-12T22:49:57.072Z,5.1
2019-02-12T22:55:52.044Z,4.92
2019-02-12T23:01:47.069Z,5.37
2019-02-12T23:07:42.088Z,5.14
2019-02-12T23:13:37.080Z,5.08
2019-02-12T23:19:32.115Z,4.88
2019-02-12T23:25:27.072Z,4.35
2019-02-12T23:31:22.092Z,4.87
2019-02-12T23:37:17.121Z,4.09
2019-02-12T23:43:12.097Z,4.48
2019-02-12T23:49:07.120Z,3.59
2019-02-12T23:55:02.096Z,4.67
